Richard B Russell Airport
KRMG : rendu visible

Aérodrome :











RETROUVEZ-NOUS SUR...

 
LOGIN :

S'inscrire | Disclaimer

   EN    FR    IT 

 









Légende :    VFR   VFR Marginal   IFR   IFR Intensif   IFR Très Intensif
Visi : 
Plafond : 
>= 8 km
>= 3000ft
5 à 8 km
1000 à 3000 ft
1500m à 5 km
500 à 1000 ft
800 à 1500m
200 à 500 ft
< 800m
< 200 ft
Symboles :   Orages  Brouillard  Fortes neiges  Fortes précipitations  Vent > 20 kt






- Altitude de l'aérodrome : 644 ft


KRMG - Richard B Russell

DERNIER METAR :
  • 171853Z AUTO 04005KT 10SM OVC100 09/M02 A3049 RMK AO2 SLP323 T00891017

METARs EXPIRÉS :
  • 171753Z AUTO 04006KT 10SM OVC100 08/M02 A3051 RMK AO2 SLP330 T00831022 10083 20050 58018
  • 171653Z AUTO 07007KT 10SM BKN110 07/M03 A3054 RMK AO2 SLP340 T00721028

TAF N/A



MET'MAP, la Météo Aéronautique d'un coup d'oeil ! - Copyright ORBIFLY Décembre 2007 - Disclaimer

ORBIFLY MET'MAP TEAM :

Programmation & Développement : Alexandra Zaïnal
Sur une idée originale de : Baudouin d'Aumeries
Assistance à la programmation : Marc-Olivier Méhu
Soutien technique & logistique : Manuel Goepfert

Contact : metmap@orbifly.com




SOURCES & CREDITS :

   NOAA       Earth
Advisory